AQQ10 IFIS: Internet Flight Information System
logo dgac
Lunes 27 de Septiembre del 2021
Buscar por aerodromo o helipuerto
Ingrese nombre de aeródromo, localidad o designador OACI:
METAR del 27-09-2021 a las 01:00 UTC
Para mayor información visite www.meteochile.cl
METAR SCIP 270100Z 15009KT 9999 SCT032 17/08 Q1025 NOSIG
Viento: dirección 150 grados, velocidad 9 nudos
Visibilidad: 10 km o más
Nubes: Nubosidad parcial a 3200 pies sobre el nivel del aeródromo
Temperatura: 17 °C
Rocío: 8 °C
Humedad_relativa: 55%
Presión: 1025 hPa
No se esperan cambios significativos en las próximas 2 horas
METAR del 27-09-2021 a las 00:00 UTC
Para mayor información visite www.meteochile.cl
METAR SCIP 270000Z 18010KT 9999 SCT035 19/09 Q1025 NOSIG
Viento: dirección 180 grados, velocidad 10 nudos
Visibilidad: 10 km o más
Nubes: Nubosidad parcial a 3500 pies sobre el nivel del aeródromo
Temperatura: 19 °C
Rocío: 9 °C
Humedad_relativa: 52%
Presión: 1025 hPa
No se esperan cambios significativos en las próximas 2 horas
METAR del 26-09-2021 a las 23:00 UTC
Para mayor información visite www.meteochile.cl
METAR SCIP 262300Z 18009KT 9999 SCT035 19/10 Q1025 NOSIG
Viento: dirección 180 grados, velocidad 9 nudos
Visibilidad: 10 km o más
Nubes: Nubosidad parcial a 3500 pies sobre el nivel del aeródromo
Temperatura: 19 °C
Rocío: 10 °C
Humedad_relativa: 56%
Presión: 1025 hPa
No se esperan cambios significativos en las próximas 2 horas
METAR del 26-09-2021 a las 22:00 UTC
Para mayor información visite www.meteochile.cl
METAR SCIP 262200Z 17011KT 9999 BKN030 19/10 Q1025 NOSIG
Viento: dirección 170 grados, velocidad 11 nudos
Visibilidad: 10 km o más
Nubes: Nublado a 3000 pies sobre el nivel del aeródromo
Temperatura: 19 °C
Rocío: 10 °C
Humedad_relativa: 56%
Presión: 1025 hPa
No se esperan cambios significativos en las próximas 2 horas
METAR del 26-09-2021 a las 21:00 UTC
Para mayor información visite www.meteochile.cl
METAR SCIP 262100Z 17011KT 9999 SCT035 20/10 Q1025 NOSIG
Viento: dirección 170 grados, velocidad 11 nudos
Visibilidad: 10 km o más
Nubes: Nubosidad parcial a 3500 pies sobre el nivel del aeródromo
Temperatura: 20 °C
Rocío: 10 °C
Humedad_relativa: 53%
Presión: 1025 hPa
No se esperan cambios significativos en las próximas 2 horas
METAR del 26-09-2021 a las 20:00 UTC
Para mayor información visite www.meteochile.cl
METAR SCIP 262000Z 17012KT 9999 SCT030 BKN049 19/10 Q1026 NOSIG
Viento: dirección 170 grados, velocidad 12 nudos
Visibilidad: 10 km o más
Nubes: Nubosidad parcial a 3000 pies sobre el nivel del aeródromo
Nubes: Nublado a 4900 pies sobre el nivel del aeródromo
Temperatura: 19 °C
Rocío: 10 °C
Humedad_relativa: 56%
Presión: 1026 hPa
No se esperan cambios significativos en las próximas 2 horas
METAR del 26-09-2021 a las 19:00 UTC
Para mayor información visite www.meteochile.cl
METAR SCIP 261900Z 20009KT 9999 BKN030 BKN050 19/10 Q1026 NOSIG
Viento: dirección 200 grados, velocidad 9 nudos
Visibilidad: 10 km o más
Nubes: Nublado a 3000 pies sobre el nivel del aeródromo
Nubes: Nublado a 5000 pies sobre el nivel del aeródromo
Temperatura: 19 °C
Rocío: 10 °C
Humedad_relativa: 56%
Presión: 1026 hPa
No se esperan cambios significativos en las próximas 2 horas
METAR del 26-09-2021 a las 18:00 UTC
Para mayor información visite www.meteochile.cl
METAR SCIP 261800Z 17010KT 9999 BKN031 20/09 Q1026 NOSIG
Viento: dirección 170 grados, velocidad 10 nudos
Visibilidad: 10 km o más
Nubes: Nublado a 3100 pies sobre el nivel del aeródromo
Temperatura: 20 °C
Rocío: 9 °C
Humedad_relativa: 49%
Presión: 1026 hPa
No se esperan cambios significativos en las próximas 2 horas
METAR del 26-09-2021 a las 17:00 UTC
Para mayor información visite www.meteochile.cl
METAR SCIP 261700Z 17009KT 9999 FEW040 19/08 Q1026 NOSIG
Viento: dirección 170 grados, velocidad 9 nudos
Visibilidad: 10 km o más
Nubes: Escasa nubosidad a 4000 pies sobre el nivel del aeródromo
Temperatura: 19 °C
Rocío: 8 °C
Humedad_relativa: 49%
Presión: 1026 hPa
No se esperan cambios significativos en las próximas 2 horas
METAR del 26-09-2021 a las 16:00 UTC
Para mayor información visite www.meteochile.cl
METAR SCIP 261600Z 17009KT 9999 SCT040 18/09 Q1026 NOSIG
Viento: dirección 170 grados, velocidad 9 nudos
Visibilidad: 10 km o más
Nubes: Nubosidad parcial a 4000 pies sobre el nivel del aeródromo
Temperatura: 18 °C
Rocío: 9 °C
Humedad_relativa: 56%
Presión: 1026 hPa
No se esperan cambios significativos en las próximas 2 horas